sensor_id;sensor_type;location;lat;lon;timestamp;P1;durP1;ratioP1;P2;durP2;ratioP2
51495;SDS011;37572;52.094;4.870;2023-08-30T00:00:35;10.15;;;7.38;;
51495;SDS011;37572;52.094;4.870;2023-08-30T00:03:00;10.43;;;7.27;;
51495;SDS011;37572;52.094;4.870;2023-08-30T00:05:26;11.65;;;7.28;;
51495;SDS011;37572;52.094;4.870;2023-08-30T00:07:53;9.95;;;6.88;;
51495;SDS011;37572;52.094;4.870;2023-08-30T00:10:18;9.48;;;7.35;;
51495;SDS011;37572;52.094;4.870;2023-08-30T00:12:44;10.10;;;6.97;;
51495;SDS011;37572;52.094;4.870;2023-08-30T00:15:09;10.47;;;7.27;;
51495;SDS011;37572;52.094;4.870;2023-08-30T00:17:35;12.40;;;6.95;;
51495;SDS011;37572;52.094;4.870;2023-08-30T00:20:00;10.80;;;6.97;;
51495;SDS011;37572;52.094;4.870;2023-08-30T00:22:25;9.40;;;6.93;;
51495;SDS011;37572;52.094;4.870;2023-08-30T00:24:52;11.10;;;7.70;;
51495;SDS011;37572;52.094;4.870;2023-08-30T00:27:18;11.63;;;6.55;;
51495;SDS011;37572;52.094;4.870;2023-08-30T00:29:45;9.98;;;7.07;;
51495;SDS011;37572;52.094;4.870;2023-08-30T00:32:10;11.27;;;6.43;;
51495;SDS011;37572;52.094;4.870;2023-08-30T00:34:36;10.15;;;7.15;;
51495;SDS011;37572;52.094;4.870;2023-08-30T00:37:02;9.82;;;7.25;;
51495;SDS011;37572;52.094;4.870;2023-08-30T00:39:27;10.88;;;6.85;;
51495;SDS011;37572;52.094;4.870;2023-08-30T00:41:52;11.03;;;7.60;;
51495;SDS011;37572;52.094;4.870;2023-08-30T00:44:18;11.55;;;7.60;;
51495;SDS011;37572;52.094;4.870;2023-08-30T00:46:43;11.47;;;7.10;;
51495;SDS011;37572;52.094;4.870;2023-08-30T00:49:08;10.38;;;6.63;;
51495;SDS011;37572;52.094;4.870;2023-08-30T00:51:34;10.73;;;6.72;;
51495;SDS011;37572;52.094;4.870;2023-08-30T00:53:59;12.75;;;7.85;;
51495;SDS011;37572;52.094;4.870;2023-08-30T00:56:25;11.63;;;7.40;;
51495;SDS011;37572;52.094;4.870;2023-08-30T00:58:52;12.63;;;7.97;;
51495;SDS011;37572;52.094;4.870;2023-08-30T01:01:18;13.85;;;7.75;;
51495;SDS011;37572;52.094;4.870;2023-08-30T01:03:43;10.40;;;6.85;;
51495;SDS011;37572;52.094;4.870;2023-08-30T01:06:09;10.73;;;7.40;;
51495;SDS011;37572;52.094;4.870;2023-08-30T01:08:35;10.75;;;7.40;;
51495;SDS011;37572;52.094;4.870;2023-08-30T01:14:03;10.75;;;7.18;;
51495;SDS011;37572;52.094;4.870;2023-08-30T01:16:32;11.85;;;7.40;;
51495;SDS011;37572;52.094;4.870;2023-08-30T01:18:59;11.77;;;7.90;;
51495;SDS011;37572;52.094;4.870;2023-08-30T01:21:49;11.27;;;7.65;;
51495;SDS011;37572;52.094;4.870;2023-08-30T01:24:26;10.70;;;7.70;;
51495;SDS011;37572;52.094;4.870;2023-08-30T01:27:07;12.20;;;6.82;;
51495;SDS011;37572;52.094;4.870;2023-08-30T01:29:34;10.77;;;6.95;;
51495;SDS011;37572;52.094;4.870;2023-08-30T01:32:01;13.85;;;7.65;;
51495;SDS011;37572;52.094;4.870;2023-08-30T01:34:28;11.30;;;6.93;;
51495;SDS011;37572;52.094;4.870;2023-08-30T01:36:53;12.98;;;7.32;;
51495;SDS011;37572;52.094;4.870;2023-08-30T01:39:19;11.85;;;7.35;;
51495;SDS011;37572;52.094;4.870;2023-08-30T01:41:47;11.98;;;7.70;;
51495;SDS011;37572;52.094;4.870;2023-08-30T01:44:12;14.13;;;7.97;;
51495;SDS011;37572;52.094;4.870;2023-08-30T01:46:41;12.18;;;7.75;;
51495;SDS011;37572;52.094;4.870;2023-08-30T01:49:08;13.52;;;8.70;;
51495;SDS011;37572;52.094;4.870;2023-08-30T01:51:34;12.73;;;8.00;;
51495;SDS011;37572;52.094;4.870;2023-08-30T01:54:00;13.02;;;8.30;;
51495;SDS011;37572;52.094;4.870;2023-08-30T01:56:26;13.80;;;8.45;;
51495;SDS011;37572;52.094;4.870;2023-08-30T01:58:51;15.82;;;8.20;;
51495;SDS011;37572;52.094;4.870;2023-08-30T02:01:16;12.50;;;8.18;;
51495;SDS011;37572;52.094;4.870;2023-08-30T02:03:44;12.70;;;8.40;;
51495;SDS011;37572;52.094;4.870;2023-08-30T02:06:14;13.82;;;7.82;;
51495;SDS011;37572;52.094;4.870;2023-08-30T02:08:47;14.00;;;8.15;;
51495;SDS011;37572;52.094;4.870;2023-08-30T02:11:22;12.27;;;8.40;;
51495;SDS011;37572;52.094;4.870;2023-08-30T02:13:51;13.52;;;8.27;;
51495;SDS011;37572;52.094;4.870;2023-08-30T02:16:18;15.35;;;8.68;;
51495;SDS011;37572;52.094;4.870;2023-08-30T02:18:45;12.10;;;7.93;;
51495;SDS011;37572;52.094;4.870;2023-08-30T02:21:11;12.95;;;7.97;;
51495;SDS011;37572;52.094;4.870;2023-08-30T02:23:37;15.00;;;8.70;;
51495;SDS011;37572;52.094;4.870;2023-08-30T02:26:03;12.67;;;8.30;;
51495;SDS011;37572;52.094;4.870;2023-08-30T02:28:28;13.65;;;7.78;;
51495;SDS011;37572;52.094;4.870;2023-08-30T02:30:54;12.63;;;8.43;;
51495;SDS011;37572;52.094;4.870;2023-08-30T02:33:19;13.63;;;8.38;;
51495;SDS011;37572;52.094;4.870;2023-08-30T02:35:45;13.27;;;8.10;;
51495;SDS011;37572;52.094;4.870;2023-08-30T02:38:10;14.40;;;7.47;;
51495;SDS011;37572;52.094;4.870;2023-08-30T02:40:36;13.38;;;8.90;;
51495;SDS011;37572;52.094;4.870;2023-08-30T02:43:01;13.50;;;7.90;;
51495;SDS011;37572;52.094;4.870;2023-08-30T02:45:26;14.90;;;8.77;;
51495;SDS011;37572;52.094;4.870;2023-08-30T02:47:54;13.63;;;8.57;;
51495;SDS011;37572;52.094;4.870;2023-08-30T02:50:20;13.38;;;8.55;;
51495;SDS011;37572;52.094;4.870;2023-08-30T02:52:45;14.87;;;8.27;;
51495;SDS011;37572;52.094;4.870;2023-08-30T02:55:10;14.53;;;8.83;;
51495;SDS011;37572;52.094;4.870;2023-08-30T02:57:36;14.97;;;9.53;;
51495;SDS011;37572;52.094;4.870;2023-08-30T03:00:01;12.63;;;8.40;;
51495;SDS011;37572;52.094;4.870;2023-08-30T03:02:30;13.60;;;7.90;;
51495;SDS011;37572;52.094;4.870;2023-08-30T03:04:56;16.67;;;9.00;;
51495;SDS011;37572;52.094;4.870;2023-08-30T03:07:21;14.43;;;8.03;;
51495;SDS011;37572;52.094;4.870;2023-08-30T03:09:51;13.87;;;9.60;;
51495;SDS011;37572;52.094;4.870;2023-08-30T03:12:17;13.77;;;8.20;;
51495;SDS011;37572;52.094;4.870;2023-08-30T03:14:43;16.52;;;8.93;;
51495;SDS011;37572;52.094;4.870;2023-08-30T03:17:08;17.80;;;10.27;;
51495;SDS011;37572;52.094;4.870;2023-08-30T03:19:33;15.40;;;8.40;;
51495;SDS011;37572;52.094;4.870;2023-08-30T03:21:59;17.27;;;8.87;;
51495;SDS011;37572;52.094;4.870;2023-08-30T03:24:25;15.60;;;9.02;;
51495;SDS011;37572;52.094;4.870;2023-08-30T03:26:50;14.00;;;9.15;;
51495;SDS011;37572;52.094;4.870;2023-08-30T03:29:15;15.85;;;9.20;;
51495;SDS011;37572;52.094;4.870;2023-08-30T03:31:41;15.35;;;8.85;;
51495;SDS011;37572;52.094;4.870;2023-08-30T03:34:08;15.55;;;9.63;;
51495;SDS011;37572;52.094;4.870;2023-08-30T03:36:33;14.80;;;8.98;;
51495;SDS011;37572;52.094;4.870;2023-08-30T03:38:59;14.60;;;8.32;;
51495;SDS011;37572;52.094;4.870;2023-08-30T03:41:24;15.32;;;8.60;;
51495;SDS011;37572;52.094;4.870;2023-08-30T03:43:49;15.40;;;9.93;;
51495;SDS011;37572;52.094;4.870;2023-08-30T03:46:14;17.10;;;10.57;;
51495;SDS011;37572;52.094;4.870;2023-08-30T03:48:40;15.30;;;8.93;;
51495;SDS011;37572;52.094;4.870;2023-08-30T03:51:05;16.67;;;9.43;;
51495;SDS011;37572;52.094;4.870;2023-08-30T03:53:30;16.50;;;9.57;;
51495;SDS011;37572;52.094;4.870;2023-08-30T03:55:56;14.23;;;9.38;;
51495;SDS011;37572;52.094;4.870;2023-08-30T03:58:21;17.35;;;10.15;;
51495;SDS011;37572;52.094;4.870;2023-08-30T04:00:46;19.40;;;9.47;;
51495;SDS011;37572;52.094;4.870;2023-08-30T04:03:13;15.73;;;9.88;;
51495;SDS011;37572;52.094;4.870;2023-08-30T04:05:39;16.90;;;9.88;;
51495;SDS011;37572;52.094;4.870;2023-08-30T04:08:05;15.05;;;9.98;;
51495;SDS011;37572;52.094;4.870;2023-08-30T04:10:35;14.82;;;9.20;;
51495;SDS011;37572;52.094;4.870;2023-08-30T04:13:01;16.40;;;10.77;;
51495;SDS011;37572;52.094;4.870;2023-08-30T04:15:27;19.42;;;10.45;;
51495;SDS011;37572;52.094;4.870;2023-08-30T04:17:52;17.83;;;10.43;;
51495;SDS011;37572;52.094;4.870;2023-08-30T04:20:18;16.07;;;9.07;;
51495;SDS011;37572;52.094;4.870;2023-08-30T04:22:43;17.38;;;10.18;;
51495;SDS011;37572;52.094;4.870;2023-08-30T04:25:08;14.90;;;9.57;;
51495;SDS011;37572;52.094;4.870;2023-08-30T04:27:34;17.95;;;10.30;;
51495;SDS011;37572;52.094;4.870;2023-08-30T04:30:00;18.75;;;10.18;;
51495;SDS011;37572;52.094;4.870;2023-08-30T04:32:25;17.17;;;10.65;;
51495;SDS011;37572;52.094;4.870;2023-08-30T04:34:50;16.20;;;9.73;;
51495;SDS011;37572;52.094;4.870;2023-08-30T04:37:15;17.33;;;10.80;;
51495;SDS011;37572;52.094;4.870;2023-08-30T04:39:41;19.48;;;10.23;;
51495;SDS011;37572;52.094;4.870;2023-08-30T04:42:06;16.30;;;9.67;;
51495;SDS011;37572;52.094;4.870;2023-08-30T04:44:31;14.80;;;9.27;;
51495;SDS011;37572;52.094;4.870;2023-08-30T04:46:57;18.48;;;10.90;;
51495;SDS011;37572;52.094;4.870;2023-08-30T04:49:22;16.58;;;9.68;;
51495;SDS011;37572;52.094;4.870;2023-08-30T04:51:50;18.33;;;9.77;;
51495;SDS011;37572;52.094;4.870;2023-08-30T04:54:15;14.68;;;9.05;;
51495;SDS011;37572;52.094;4.870;2023-08-30T04:56:41;18.02;;;12.02;;
51495;SDS011;37572;52.094;4.870;2023-08-30T04:59:07;19.98;;;10.40;;
51495;SDS011;37572;52.094;4.870;2023-08-30T05:01:32;17.07;;;9.70;;
51495;SDS011;37572;52.094;4.870;2023-08-30T05:03:57;16.23;;;9.80;;
51495;SDS011;37572;52.094;4.870;2023-08-30T05:06:23;17.77;;;9.75;;
51495;SDS011;37572;52.094;4.870;2023-08-30T05:08:48;17.63;;;9.93;;
51495;SDS011;37572;52.094;4.870;2023-08-30T05:11:13;17.53;;;9.77;;
51495;SDS011;37572;52.094;4.870;2023-08-30T05:13:39;17.83;;;10.05;;
51495;SDS011;37572;52.094;4.870;2023-08-30T05:16:04;16.38;;;9.43;;
51495;SDS011;37572;52.094;4.870;2023-08-30T05:18:30;16.27;;;9.70;;
51495;SDS011;37572;52.094;4.870;2023-08-30T05:20:56;17.38;;;9.52;;
51495;SDS011;37572;52.094;4.870;2023-08-30T05:23:21;15.25;;;8.80;;
51495;SDS011;37572;52.094;4.870;2023-08-30T05:25:46;15.07;;;9.77;;
51495;SDS011;37572;52.094;4.870;2023-08-30T05:28:12;14.25;;;8.25;;
51495;SDS011;37572;52.094;4.870;2023-08-30T05:30:38;13.38;;;8.73;;
51495;SDS011;37572;52.094;4.870;2023-08-30T05:33:06;16.42;;;10.13;;
51495;SDS011;37572;52.094;4.870;2023-08-30T05:35:31;15.27;;;9.23;;
51495;SDS011;37572;52.094;4.870;2023-08-30T05:37:57;18.25;;;9.50;;
51495;SDS011;37572;52.094;4.870;2023-08-30T05:40:22;15.13;;;9.07;;
51495;SDS011;37572;52.094;4.870;2023-08-30T05:42:48;15.52;;;9.90;;
51495;SDS011;37572;52.094;4.870;2023-08-30T05:45:15;16.85;;;9.60;;
51495;SDS011;37572;52.094;4.870;2023-08-30T05:47:40;18.13;;;9.90;;
51495;SDS011;37572;52.094;4.870;2023-08-30T05:50:05;17.10;;;10.57;;
51495;SDS011;37572;52.094;4.870;2023-08-30T05:52:31;18.35;;;10.38;;
51495;SDS011;37572;52.094;4.870;2023-08-30T05:54:57;19.13;;;10.88;;
51495;SDS011;37572;52.094;4.870;2023-08-30T05:57:22;16.50;;;10.20;;
51495;SDS011;37572;52.094;4.870;2023-08-30T05:59:49;17.95;;;11.43;;
51495;SDS011;37572;52.094;4.870;2023-08-30T06:02:15;21.17;;;11.27;;
51495;SDS011;37572;52.094;4.870;2023-08-30T06:04:40;20.67;;;11.40;;
51495;SDS011;37572;52.094;4.870;2023-08-30T06:07:07;23.88;;;12.65;;
51495;SDS011;37572;52.094;4.870;2023-08-30T06:09:33;22.83;;;11.77;;
51495;SDS011;37572;52.094;4.870;2023-08-30T06:11:58;20.65;;;11.95;;
51495;SDS011;37572;52.094;4.870;2023-08-30T06:14:24;19.23;;;12.02;;
51495;SDS011;37572;52.094;4.870;2023-08-30T06:16:49;22.77;;;11.30;;
51495;SDS011;37572;52.094;4.870;2023-08-30T06:19:15;20.60;;;11.90;;
51495;SDS011;37572;52.094;4.870;2023-08-30T06:21:40;21.48;;;12.10;;
51495;SDS011;37572;52.094;4.870;2023-08-30T06:24:05;22.93;;;12.13;;
51495;SDS011;37572;52.094;4.870;2023-08-30T06:26:31;24.63;;;13.52;;
51495;SDS011;37572;52.094;4.870;2023-08-30T06:28:56;21.60;;;13.30;;
51495;SDS011;37572;52.094;4.870;2023-08-30T06:31:21;21.03;;;12.53;;
51495;SDS011;37572;52.094;4.870;2023-08-30T06:33:47;22.42;;;12.45;;
51495;SDS011;37572;52.094;4.870;2023-08-30T06:36:13;22.83;;;12.35;;
51495;SDS011;37572;52.094;4.870;2023-08-30T06:38:40;22.00;;;12.75;;
51495;SDS011;37572;52.094;4.870;2023-08-30T06:41:06;21.55;;;12.95;;
51495;SDS011;37572;52.094;4.870;2023-08-30T06:43:32;23.38;;;12.57;;
51495;SDS011;37572;52.094;4.870;2023-08-30T06:45:57;21.53;;;12.67;;
51495;SDS011;37572;52.094;4.870;2023-08-30T06:48:24;24.23;;;13.90;;
51495;SDS011;37572;52.094;4.870;2023-08-30T06:50:49;24.33;;;12.83;;
51495;SDS011;37572;52.094;4.870;2023-08-30T06:53:14;25.47;;;13.73;;
51495;SDS011;37572;52.094;4.870;2023-08-30T06:55:40;24.50;;;12.63;;
51495;SDS011;37572;52.094;4.870;2023-08-30T06:58:05;22.75;;;13.38;;
51495;SDS011;37572;52.094;4.870;2023-08-30T07:00:30;26.60;;;14.37;;
51495;SDS011;37572;52.094;4.870;2023-08-30T07:02:55;24.40;;;13.75;;
51495;SDS011;37572;52.094;4.870;2023-08-30T07:05:22;28.08;;;14.20;;
51495;SDS011;37572;52.094;4.870;2023-08-30T07:07:48;22.27;;;12.88;;
51495;SDS011;37572;52.094;4.870;2023-08-30T07:10:13;27.77;;;14.43;;
51495;SDS011;37572;52.094;4.870;2023-08-30T07:12:38;24.17;;;13.20;;
51495;SDS011;37572;52.094;4.870;2023-08-30T07:15:04;24.77;;;13.57;;
51495;SDS011;37572;52.094;4.870;2023-08-30T07:17:29;26.23;;;13.57;;
51495;SDS011;37572;52.094;4.870;2023-08-30T07:19:55;24.38;;;13.82;;
51495;SDS011;37572;52.094;4.870;2023-08-30T07:22:20;25.45;;;13.77;;
51495;SDS011;37572;52.094;4.870;2023-08-30T07:24:45;22.57;;;12.07;;
51495;SDS011;37572;52.094;4.870;2023-08-30T07:27:11;24.33;;;13.77;;
51495;SDS011;37572;52.094;4.870;2023-08-30T07:29:38;24.48;;;13.15;;
51495;SDS011;37572;52.094;4.870;2023-08-30T07:32:08;26.23;;;13.50;;
51495;SDS011;37572;52.094;4.870;2023-08-30T07:34:34;24.10;;;13.10;;
51495;SDS011;37572;52.094;4.870;2023-08-30T07:36:59;22.43;;;11.50;;
51495;SDS011;37572;52.094;4.870;2023-08-30T07:39:24;18.80;;;11.70;;
51495;SDS011;37572;52.094;4.870;2023-08-30T07:41:50;20.73;;;12.85;;
51495;SDS011;37572;52.094;4.870;2023-08-30T07:44:15;20.33;;;11.77;;
51495;SDS011;37572;52.094;4.870;2023-08-30T07:46:41;20.58;;;10.95;;
51495;SDS011;37572;52.094;4.870;2023-08-30T07:49:06;18.30;;;10.50;;
51495;SDS011;37572;52.094;4.870;2023-08-30T07:51:32;17.90;;;11.05;;
51495;SDS011;37572;52.094;4.870;2023-08-30T07:53:57;17.17;;;10.87;;
51495;SDS011;37572;52.094;4.870;2023-08-30T07:56:22;14.93;;;9.30;;
51495;SDS011;37572;52.094;4.870;2023-08-30T07:58:48;18.83;;;9.50;;
51495;SDS011;37572;52.094;4.870;2023-08-30T08:01:13;16.00;;;9.57;;
51495;SDS011;37572;52.094;4.870;2023-08-30T08:03:39;16.52;;;9.40;;
51495;SDS011;37572;52.094;4.870;2023-08-30T08:06:06;15.25;;;9.02;;
51495;SDS011;37572;52.094;4.870;2023-08-30T08:08:31;13.63;;;7.88;;
51495;SDS011;37572;52.094;4.870;2023-08-30T08:10:58;16.00;;;8.63;;
51495;SDS011;37572;52.094;4.870;2023-08-30T08:13:24;14.13;;;8.25;;
51495;SDS011;37572;52.094;4.870;2023-08-30T08:15:49;13.65;;;8.52;;
51495;SDS011;37572;52.094;4.870;2023-08-30T08:18:14;14.10;;;8.47;;
51495;SDS011;37572;52.094;4.870;2023-08-30T08:20:40;13.43;;;8.25;;
51495;SDS011;37572;52.094;4.870;2023-08-30T08:23:05;14.50;;;8.82;;
51495;SDS011;37572;52.094;4.870;2023-08-30T08:25:31;13.50;;;8.80;;
51495;SDS011;37572;52.094;4.870;2023-08-30T08:27:56;14.52;;;8.57;;
51495;SDS011;37572;52.094;4.870;2023-08-30T08:30:21;12.05;;;7.75;;
51495;SDS011;37572;52.094;4.870;2023-08-30T08:32:47;13.45;;;8.27;;
51495;SDS011;37572;52.094;4.870;2023-08-30T08:35:13;13.88;;;9.18;;
51495;SDS011;37572;52.094;4.870;2023-08-30T08:37:38;12.88;;;8.50;;
51495;SDS011;37572;52.094;4.870;2023-08-30T08:40:03;14.53;;;7.93;;
51495;SDS011;37572;52.094;4.870;2023-08-30T08:42:33;17.33;;;10.05;;
51495;SDS011;37572;52.094;4.870;2023-08-30T08:44:59;14.02;;;8.15;;
51495;SDS011;37572;52.094;4.870;2023-08-30T08:47:26;15.35;;;9.52;;
51495;SDS011;37572;52.094;4.870;2023-08-30T08:49:57;16.20;;;10.48;;
51495;SDS011;37572;52.094;4.870;2023-08-30T08:52:24;16.10;;;10.35;;
51495;SDS011;37572;52.094;4.870;2023-08-30T08:54:49;16.67;;;9.70;;
51495;SDS011;37572;52.094;4.870;2023-08-30T08:57:16;17.13;;;10.60;;
51495;SDS011;37572;52.094;4.870;2023-08-30T08:59:42;18.05;;;10.98;;
51495;SDS011;37572;52.094;4.870;2023-08-30T09:02:08;17.20;;;11.55;;
51495;SDS011;37572;52.094;4.870;2023-08-30T09:04:38;16.77;;;10.48;;
51495;SDS011;37572;52.094;4.870;2023-08-30T09:07:04;16.67;;;10.40;;
51495;SDS011;37572;52.094;4.870;2023-08-30T09:09:30;18.80;;;11.52;;
51495;SDS011;37572;52.094;4.870;2023-08-30T09:11:55;16.77;;;10.82;;
51495;SDS011;37572;52.094;4.870;2023-08-30T09:14:21;16.42;;;11.15;;
51495;SDS011;37572;52.094;4.870;2023-08-30T09:16:59;18.08;;;11.20;;
51495;SDS011;37572;52.094;4.870;2023-08-30T09:19:27;16.00;;;10.18;;
51495;SDS011;37572;52.094;4.870;2023-08-30T09:21:59;16.00;;;11.13;;
51495;SDS011;37572;52.094;4.870;2023-08-30T09:24:24;18.65;;;13.18;;
51495;SDS011;37572;52.094;4.870;2023-08-30T09:26:51;17.98;;;12.85;;
51495;SDS011;37572;52.094;4.870;2023-08-30T09:29:18;19.02;;;12.60;;
51495;SDS011;37572;52.094;4.870;2023-08-30T09:31:44;14.95;;;12.13;;
51495;SDS011;37572;52.094;4.870;2023-08-30T09:34:10;18.30;;;12.80;;
51495;SDS011;37572;52.094;4.870;2023-08-30T09:36:40;15.80;;;11.93;;
51495;SDS011;37572;52.094;4.870;2023-08-30T09:39:12;10.90;;;8.50;;
51495;SDS011;37572;52.094;4.870;2023-08-30T09:44:14;7.65;;;6.03;;
51495;SDS011;37572;52.094;4.870;2023-08-30T09:46:44;5.90;;;4.85;;
51495;SDS011;37572;52.094;4.870;2023-08-30T09:49:09;6.88;;;4.95;;
51495;SDS011;37572;52.094;4.870;2023-08-30T09:51:37;6.30;;;4.47;;
51495;SDS011;37572;52.094;4.870;2023-08-30T09:54:06;7.18;;;3.72;;
51495;SDS011;37572;52.094;4.870;2023-08-30T09:56:33;5.32;;;3.72;;
51495;SDS011;37572;52.094;4.870;2023-08-30T09:59:01;5.07;;;3.22;;
51495;SDS011;37572;52.094;4.870;2023-08-30T10:01:28;7.82;;;3.00;;
51495;SDS011;37572;52.094;4.870;2023-08-30T10:03:55;7.90;;;3.17;;
51495;SDS011;37572;52.094;4.870;2023-08-30T10:06:23;5.38;;;2.38;;
51495;SDS011;37572;52.094;4.870;2023-08-30T10:08:49;5.22;;;2.70;;
51495;SDS011;37572;52.094;4.870;2023-08-30T10:11:18;4.57;;;2.72;;
51495;SDS011;37572;52.094;4.870;2023-08-30T10:13:43;4.22;;;2.20;;
51495;SDS011;37572;52.094;4.870;2023-08-30T10:16:12;6.03;;;2.63;;
51495;SDS011;37572;52.094;4.870;2023-08-30T10:18:43;5.50;;;2.97;;
51495;SDS011;37572;52.094;4.870;2023-08-30T10:21:14;5.95;;;2.92;;
51495;SDS011;37572;52.094;4.870;2023-08-30T10:23:43;6.68;;;3.00;;
51495;SDS011;37572;52.094;4.870;2023-08-30T10:26:11;7.60;;;2.75;;
51495;SDS011;37572;52.094;4.870;2023-08-30T10:28:37;6.60;;;2.53;;
51495;SDS011;37572;52.094;4.870;2023-08-30T10:31:04;5.97;;;3.05;;
51495;SDS011;37572;52.094;4.870;2023-08-30T10:33:30;5.40;;;3.05;;
51495;SDS011;37572;52.094;4.870;2023-08-30T10:36:02;5.35;;;2.85;;
51495;SDS011;37572;52.094;4.870;2023-08-30T10:38:32;5.65;;;2.67;;
51495;SDS011;37572;52.094;4.870;2023-08-30T10:41:07;7.00;;;2.63;;
51495;SDS011;37572;52.094;4.870;2023-08-30T10:43:33;7.30;;;2.65;;
51495;SDS011;37572;52.094;4.870;2023-08-30T10:46:04;6.10;;;2.83;;
51495;SDS011;37572;52.094;4.870;2023-08-30T10:48:38;5.97;;;2.65;;
51495;SDS011;37572;52.094;4.870;2023-08-30T10:51:06;6.53;;;2.55;;
51495;SDS011;37572;52.094;4.870;2023-08-30T10:53:54;5.40;;;2.15;;
51495;SDS011;37572;52.094;4.870;2023-08-30T10:56:26;7.00;;;3.05;;
51495;SDS011;37572;52.094;4.870;2023-08-30T10:58:52;5.95;;;1.85;;
51495;SDS011;37572;52.094;4.870;2023-08-30T11:01:18;6.25;;;2.28;;
51495;SDS011;37572;52.094;4.870;2023-08-30T11:03:44;6.18;;;1.95;;
51495;SDS011;37572;52.094;4.870;2023-08-30T11:06:13;4.40;;;1.52;;
51495;SDS011;37572;52.094;4.870;2023-08-30T11:08:39;6.78;;;2.08;;
51495;SDS011;37572;52.094;4.870;2023-08-30T11:11:05;5.82;;;2.08;;
51495;SDS011;37572;52.094;4.870;2023-08-30T11:13:33;7.00;;;2.40;;
51495;SDS011;37572;52.094;4.870;2023-08-30T11:16:02;6.45;;;2.45;;
51495;SDS011;37572;52.094;4.870;2023-08-30T11:18:29;6.82;;;2.30;;
51495;SDS011;37572;52.094;4.870;2023-08-30T11:21:01;5.88;;;2.35;;
51495;SDS011;37572;52.094;4.870;2023-08-30T11:23:27;4.72;;;1.95;;
51495;SDS011;37572;52.094;4.870;2023-08-30T11:25:52;7.22;;;2.13;;
51495;SDS011;37572;52.094;4.870;2023-08-30T11:28:24;5.93;;;1.98;;
51495;SDS011;37572;52.094;4.870;2023-08-30T11:30:53;8.18;;;2.15;;
51495;SDS011;37572;52.094;4.870;2023-08-30T11:33:19;7.30;;;2.35;;
51495;SDS011;37572;52.094;4.870;2023-08-30T11:35:44;8.45;;;2.17;;
51495;SDS011;37572;52.094;4.870;2023-08-30T11:38:13;6.95;;;2.00;;
51495;SDS011;37572;52.094;4.870;2023-08-30T11:40:39;7.50;;;1.88;;
51495;SDS011;37572;52.094;4.870;2023-08-30T11:43:04;5.82;;;1.88;;
51495;SDS011;37572;52.094;4.870;2023-08-30T11:45:32;7.40;;;1.63;;
51495;SDS011;37572;52.094;4.870;2023-08-30T11:47:59;6.15;;;2.05;;
51495;SDS011;37572;52.094;4.870;2023-08-30T11:50:26;6.53;;;2.47;;
51495;SDS011;37572;52.094;4.870;2023-08-30T11:52:52;5.72;;;2.33;;
51495;SDS011;37572;52.094;4.870;2023-08-30T11:55:18;6.63;;;1.75;;
51495;SDS011;37572;52.094;4.870;2023-08-30T11:57:47;4.68;;;1.75;;
51495;SDS011;37572;52.094;4.870;2023-08-30T12:00:13;3.20;;;1.63;;
51495;SDS011;37572;52.094;4.870;2023-08-30T12:02:39;4.70;;;1.63;;
51495;SDS011;37572;52.094;4.870;2023-08-30T12:05:05;6.82;;;1.55;;
51495;SDS011;37572;52.094;4.870;2023-08-30T12:07:31;5.53;;;1.88;;
51495;SDS011;37572;52.094;4.870;2023-08-30T12:10:08;5.57;;;1.70;;
51495;SDS011;37572;52.094;4.870;2023-08-30T12:12:35;4.25;;;1.55;;
51495;SDS011;37572;52.094;4.870;2023-08-30T12:15:10;6.18;;;1.40;;
51495;SDS011;37572;52.094;4.870;2023-08-30T12:17:36;4.65;;;1.13;;
51495;SDS011;37572;52.094;4.870;2023-08-30T12:20:02;4.07;;;1.58;;
51495;SDS011;37572;52.094;4.870;2023-08-30T12:22:37;4.70;;;1.73;;
51495;SDS011;37572;52.094;4.870;2023-08-30T12:25:03;6.47;;;1.77;;
51495;SDS011;37572;52.094;4.870;2023-08-30T12:27:29;4.88;;;1.48;;
51495;SDS011;37572;52.094;4.870;2023-08-30T12:29:55;4.25;;;1.30;;
51495;SDS011;37572;52.094;4.870;2023-08-30T12:32:20;6.23;;;1.47;;
51495;SDS011;37572;52.094;4.870;2023-08-30T12:34:45;4.27;;;1.53;;
51495;SDS011;37572;52.094;4.870;2023-08-30T12:37:11;5.47;;;2.10;;
51495;SDS011;37572;52.094;4.870;2023-08-30T12:39:36;6.83;;;2.10;;
51495;SDS011;37572;52.094;4.870;2023-08-30T12:42:01;7.23;;;2.20;;
51495;SDS011;37572;52.094;4.870;2023-08-30T12:44:26;8.17;;;2.77;;
51495;SDS011;37572;52.094;4.870;2023-08-30T12:46:52;6.10;;;2.53;;
51495;SDS011;37572;52.094;4.870;2023-08-30T12:49:17;7.68;;;2.83;;
51495;SDS011;37572;52.094;4.870;2023-08-30T12:51:42;5.00;;;2.03;;
51495;SDS011;37572;52.094;4.870;2023-08-30T12:54:08;6.37;;;2.07;;
51495;SDS011;37572;52.094;4.870;2023-08-30T12:56:33;6.43;;;2.10;;
51495;SDS011;37572;52.094;4.870;2023-08-30T12:58:58;5.33;;;2.00;;
51495;SDS011;37572;52.094;4.870;2023-08-30T13:01:24;7.13;;;2.22;;
51495;SDS011;37572;52.094;4.870;2023-08-30T13:03:49;6.50;;;1.45;;
51495;SDS011;37572;52.094;4.870;2023-08-30T13:06:15;6.87;;;1.43;;
51495;SDS011;37572;52.094;4.870;2023-08-30T13:08:40;5.67;;;1.40;;
51495;SDS011;37572;52.094;4.870;2023-08-30T13:11:05;7.13;;;1.70;;
51495;SDS011;37572;52.094;4.870;2023-08-30T13:13:30;6.33;;;1.83;;
51495;SDS011;37572;52.094;4.870;2023-08-30T13:15:56;5.15;;;1.67;;
51495;SDS011;37572;52.094;4.870;2023-08-30T13:18:21;5.50;;;1.97;;
51495;SDS011;37572;52.094;4.870;2023-08-30T13:20:46;6.07;;;1.83;;
51495;SDS011;37572;52.094;4.870;2023-08-30T13:23:12;4.55;;;2.00;;
51495;SDS011;37572;52.094;4.870;2023-08-30T13:25:40;5.35;;;1.92;;
51495;SDS011;37572;52.094;4.870;2023-08-30T13:28:06;4.32;;;2.00;;
51495;SDS011;37572;52.094;4.870;2023-08-30T13:30:32;5.72;;;2.20;;
51495;SDS011;37572;52.094;4.870;2023-08-30T13:32:57;5.38;;;2.33;;
51495;SDS011;37572;52.094;4.870;2023-08-30T13:35:23;5.60;;;2.23;;
51495;SDS011;37572;52.094;4.870;2023-08-30T13:37:48;6.57;;;2.42;;
51495;SDS011;37572;52.094;4.870;2023-08-30T13:40:15;7.38;;;2.40;;
51495;SDS011;37572;52.094;4.870;2023-08-30T13:42:40;5.30;;;2.45;;
51495;SDS011;37572;52.094;4.870;2023-08-30T13:45:05;4.67;;;2.93;;
51495;SDS011;37572;52.094;4.870;2023-08-30T13:47:34;4.50;;;2.20;;
51495;SDS011;37572;52.094;4.870;2023-08-30T13:50:00;5.10;;;2.20;;
51495;SDS011;37572;52.094;4.870;2023-08-30T13:52:25;5.35;;;1.88;;
51495;SDS011;37572;52.094;4.870;2023-08-30T13:54:51;4.88;;;2.10;;
51495;SDS011;37572;52.094;4.870;2023-08-30T13:57:16;3.47;;;1.98;;
51495;SDS011;37572;52.094;4.870;2023-08-30T13:59:42;3.70;;;1.70;;
51495;SDS011;37572;52.094;4.870;2023-08-30T14:02:07;3.07;;;1.60;;
51495;SDS011;37572;52.094;4.870;2023-08-30T14:04:32;4.18;;;1.88;;
51495;SDS011;37572;52.094;4.870;2023-08-30T14:06:59;4.32;;;1.60;;
51495;SDS011;37572;52.094;4.870;2023-08-30T14:09:24;3.42;;;1.38;;
51495;SDS011;37572;52.094;4.870;2023-08-30T14:11:49;2.43;;;1.20;;
51495;SDS011;37572;52.094;4.870;2023-08-30T14:14:15;3.13;;;1.35;;
51495;SDS011;37572;52.094;4.870;2023-08-30T14:16:40;4.00;;;1.63;;
51495;SDS011;37572;52.094;4.870;2023-08-30T14:19:05;2.85;;;1.42;;
51495;SDS011;37572;52.094;4.870;2023-08-30T14:21:31;4.38;;;1.55;;
51495;SDS011;37572;52.094;4.870;2023-08-30T14:23:57;4.68;;;1.20;;
51495;SDS011;37572;52.094;4.870;2023-08-30T14:26:22;3.53;;;1.48;;
51495;SDS011;37572;52.094;4.870;2023-08-30T14:28:48;3.83;;;1.70;;
51495;SDS011;37572;52.094;4.870;2023-08-30T14:31:13;5.23;;;1.93;;
51495;SDS011;37572;52.094;4.870;2023-08-30T14:33:41;4.47;;;1.55;;
51495;SDS011;37572;52.094;4.870;2023-08-30T14:36:09;5.00;;;1.83;;